sensor_id;sensor_type;location;lat;lon;timestamp;temperature;humidity
26743;DHT22;14341;51.256;22.478;2022-10-23T00:00:31;11.70;99.90
26743;DHT22;14341;51.256;22.478;2022-10-23T00:03:34;11.70;99.90
26743;DHT22;14341;51.256;22.478;2022-10-23T00:06:37;11.80;99.90
26743;DHT22;14341;51.256;22.478;2022-10-23T00:09:41;11.80;99.90
26743;DHT22;14341;51.256;22.478;2022-10-23T00:12:45;11.80;99.90
26743;DHT22;14341;51.256;22.478;2022-10-23T00:15:50;11.90;99.90
26743;DHT22;14341;51.256;22.478;2022-10-23T00:18:53;11.90;99.90
26743;DHT22;14341;51.256;22.478;2022-10-23T00:21:56;11.90;99.90
26743;DHT22;14341;51.256;22.478;2022-10-23T00:25:00;11.90;99.90
26743;DHT22;14341;51.256;22.478;2022-10-23T00:28:03;11.90;99.90
26743;DHT22;14341;51.256;22.478;2022-10-23T00:31:08;11.90;99.90
26743;DHT22;14341;51.256;22.478;2022-10-23T00:34:14;11.90;99.90
26743;DHT22;14341;51.256;22.478;2022-10-23T00:37:17;12.00;99.90
26743;DHT22;14341;51.256;22.478;2022-10-23T00:40:21;12.00;99.90
26743;DHT22;14341;51.256;22.478;2022-10-23T00:43:26;12.00;99.90
26743;DHT22;14341;51.256;22.478;2022-10-23T00:46:32;12.10;99.90
26743;DHT22;14341;51.256;22.478;2022-10-23T00:49:36;12.00;99.90
26743;DHT22;14341;51.256;22.478;2022-10-23T00:52:47;12.10;99.90
26743;DHT22;14341;51.256;22.478;2022-10-23T00:55:51;12.10;99.90
26743;DHT22;14341;51.256;22.478;2022-10-23T00:58:58;12.10;99.90
26743;DHT22;14341;51.256;22.478;2022-10-23T01:02:04;12.10;99.90
26743;DHT22;14341;51.256;22.478;2022-10-23T01:05:08;12.10;99.90
26743;DHT22;14341;51.256;22.478;2022-10-23T01:08:16;12.10;99.90
26743;DHT22;14341;51.256;22.478;2022-10-23T01:11:26;12.10;99.90
26743;DHT22;14341;51.256;22.478;2022-10-23T01:14:36;12.10;99.90
26743;DHT22;14341;51.256;22.478;2022-10-23T01:17:47;12.20;99.90
26743;DHT22;14341;51.256;22.478;2022-10-23T01:20:56;12.20;99.90
26743;DHT22;14341;51.256;22.478;2022-10-23T01:24:18;12.20;99.90
26743;DHT22;14341;51.256;22.478;2022-10-23T01:27:31;12.20;99.90
26743;DHT22;14341;51.256;22.478;2022-10-23T01:30:39;12.20;99.90
26743;DHT22;14341;51.256;22.478;2022-10-23T01:33:49;12.20;99.90
26743;DHT22;14341;51.256;22.478;2022-10-23T01:37:00;12.20;99.90
26743;DHT22;14341;51.256;22.478;2022-10-23T01:40:07;12.20;99.90
26743;DHT22;14341;51.256;22.478;2022-10-23T01:43:17;12.30;99.90
26743;DHT22;14341;51.256;22.478;2022-10-23T01:46:22;12.20;99.90
26743;DHT22;14341;51.256;22.478;2022-10-23T01:49:28;12.20;99.90
26743;DHT22;14341;51.256;22.478;2022-10-23T01:52:33;12.20;99.90
26743;DHT22;14341;51.256;22.478;2022-10-23T01:55:39;12.30;99.90
26743;DHT22;14341;51.256;22.478;2022-10-23T01:58:56;12.20;99.90
26743;DHT22;14341;51.256;22.478;2022-10-23T02:02:05;12.20;99.90
26743;DHT22;14341;51.256;22.478;2022-10-23T02:05:11;12.30;99.90
26743;DHT22;14341;51.256;22.478;2022-10-23T02:08:17;12.20;99.90
26743;DHT22;14341;51.256;22.478;2022-10-23T02:11:20;12.20;99.90
26743;DHT22;14341;51.256;22.478;2022-10-23T02:14:32;12.20;99.90
26743;DHT22;14341;51.256;22.478;2022-10-23T02:17:44;12.20;99.90
26743;DHT22;14341;51.256;22.478;2022-10-23T02:20:55;12.10;99.90
26743;DHT22;14341;51.256;22.478;2022-10-23T02:24:02;12.10;99.90
26743;DHT22;14341;51.256;22.478;2022-10-23T02:27:14;12.10;99.90
26743;DHT22;14341;51.256;22.478;2022-10-23T02:30:27;12.00;99.90
26743;DHT22;14341;51.256;22.478;2022-10-23T02:33:43;12.00;99.90
26743;DHT22;14341;51.256;22.478;2022-10-23T02:36:46;12.00;99.90
26743;DHT22;14341;51.256;22.478;2022-10-23T02:39:52;12.00;99.90
26743;DHT22;14341;51.256;22.478;2022-10-23T02:42:57;12.10;99.90
26743;DHT22;14341;51.256;22.478;2022-10-23T02:46:08;12.00;99.90
26743;DHT22;14341;51.256;22.478;2022-10-23T02:49:19;12.10;99.90
26743;DHT22;14341;51.256;22.478;2022-10-23T02:52:31;12.10;99.90
26743;DHT22;14341;51.256;22.478;2022-10-23T02:55:45;12.10;99.90
26743;DHT22;14341;51.256;22.478;2022-10-23T02:58:58;12.10;99.90
26743;DHT22;14341;51.256;22.478;2022-10-23T03:02:08;12.10;99.90
26743;DHT22;14341;51.256;22.478;2022-10-23T03:05:15;12.10;99.90
26743;DHT22;14341;51.256;22.478;2022-10-23T03:08:19;12.10;99.90
26743;DHT22;14341;51.256;22.478;2022-10-23T03:11:23;12.10;99.90
26743;DHT22;14341;51.256;22.478;2022-10-23T03:14:26;12.10;99.90
26743;DHT22;14341;51.256;22.478;2022-10-23T03:17:31;12.10;99.90
26743;DHT22;14341;51.256;22.478;2022-10-23T03:20:34;12.10;99.90
26743;DHT22;14341;51.256;22.478;2022-10-23T03:23:39;12.10;99.90
26743;DHT22;14341;51.256;22.478;2022-10-23T03:26:42;12.20;99.90
26743;DHT22;14341;51.256;22.478;2022-10-23T03:29:45;12.20;99.90
26743;DHT22;14341;51.256;22.478;2022-10-23T03:32:52;12.20;99.90
26743;DHT22;14341;51.256;22.478;2022-10-23T03:35:56;12.20;99.90
26743;DHT22;14341;51.256;22.478;2022-10-23T03:38:59;12.20;99.90
26743;DHT22;14341;51.256;22.478;2022-10-23T03:42:02;12.20;99.90
26743;DHT22;14341;51.256;22.478;2022-10-23T03:45:08;12.20;99.90
26743;DHT22;14341;51.256;22.478;2022-10-23T03:48:15;12.20;99.90
26743;DHT22;14341;51.256;22.478;2022-10-23T03:51:18;12.30;99.90
26743;DHT22;14341;51.256;22.478;2022-10-23T03:54:23;12.30;99.90
26743;DHT22;14341;51.256;22.478;2022-10-23T03:57:27;12.30;99.90
26743;DHT22;14341;51.256;22.478;2022-10-23T04:00:30;12.20;99.90
26743;DHT22;14341;51.256;22.478;2022-10-23T04:03:36;12.30;99.90
26743;DHT22;14341;51.256;22.478;2022-10-23T04:06:39;12.30;99.90
26743;DHT22;14341;51.256;22.478;2022-10-23T04:09:43;12.20;99.90
26743;DHT22;14341;51.256;22.478;2022-10-23T04:12:50;12.30;99.90
26743;DHT22;14341;51.256;22.478;2022-10-23T04:15:53;12.30;99.90
26743;DHT22;14341;51.256;22.478;2022-10-23T04:18:58;12.20;99.90
26743;DHT22;14341;51.256;22.478;2022-10-23T04:22:03;12.30;99.90
26743;DHT22;14341;51.256;22.478;2022-10-23T04:25:07;12.20;99.90
26743;DHT22;14341;51.256;22.478;2022-10-23T04:28:11;12.30;99.90
26743;DHT22;14341;51.256;22.478;2022-10-23T04:31:15;12.30;99.90
26743;DHT22;14341;51.256;22.478;2022-10-23T04:34:20;12.20;99.90
26743;DHT22;14341;51.256;22.478;2022-10-23T04:37:23;12.20;99.90
26743;DHT22;14341;51.256;22.478;2022-10-23T04:40:26;12.20;99.90
26743;DHT22;14341;51.256;22.478;2022-10-23T04:43:30;12.20;99.90
26743;DHT22;14341;51.256;22.478;2022-10-23T04:46:33;12.30;99.90
26743;DHT22;14341;51.256;22.478;2022-10-23T04:49:39;12.20;99.90
26743;DHT22;14341;51.256;22.478;2022-10-23T04:53:15;12.30;99.90
26743;DHT22;14341;51.256;22.478;2022-10-23T04:56:41;12.20;99.90
26743;DHT22;14341;51.256;22.478;2022-10-23T04:59:53;12.30;99.90
26743;DHT22;14341;51.256;22.478;2022-10-23T05:02:56;12.30;99.90
26743;DHT22;14341;51.256;22.478;2022-10-23T05:06:07;12.30;99.90
26743;DHT22;14341;51.256;22.478;2022-10-23T05:09:40;12.20;99.90
26743;DHT22;14341;51.256;22.478;2022-10-23T05:12:51;12.20;99.90
26743;DHT22;14341;51.256;22.478;2022-10-23T05:15:57;12.20;99.90
26743;DHT22;14341;51.256;22.478;2022-10-23T05:19:02;12.20;99.90
26743;DHT22;14341;51.256;22.478;2022-10-23T05:22:09;12.10;99.90
26743;DHT22;14341;51.256;22.478;2022-10-23T05:25:26;12.10;99.90
26743;DHT22;14341;51.256;22.478;2022-10-23T05:28:37;12.20;99.90
26743;DHT22;14341;51.256;22.478;2022-10-23T05:31:43;12.20;99.90
26743;DHT22;14341;51.256;22.478;2022-10-23T05:34:46;12.20;99.90
26743;DHT22;14341;51.256;22.478;2022-10-23T05:37:52;12.20;99.90
26743;DHT22;14341;51.256;22.478;2022-10-23T05:40:59;12.20;99.90
26743;DHT22;14341;51.256;22.478;2022-10-23T05:44:02;12.20;99.90
26743;DHT22;14341;51.256;22.478;2022-10-23T05:47:24;12.30;99.90
26743;DHT22;14341;51.256;22.478;2022-10-23T05:50:42;12.30;99.90
26743;DHT22;14341;51.256;22.478;2022-10-23T05:53:54;12.40;99.90
26743;DHT22;14341;51.256;22.478;2022-10-23T05:57:06;12.30;99.90
26743;DHT22;14341;51.256;22.478;2022-10-23T06:00:18;12.40;99.90
26743;DHT22;14341;51.256;22.478;2022-10-23T06:03:31;12.40;99.90
26743;DHT22;14341;51.256;22.478;2022-10-23T06:06:35;12.50;99.90
26743;DHT22;14341;51.256;22.478;2022-10-23T06:09:40;12.50;99.90
26743;DHT22;14341;51.256;22.478;2022-10-23T06:12:43;12.50;99.90
26743;DHT22;14341;51.256;22.478;2022-10-23T06:15:50;12.50;99.90
26743;DHT22;14341;51.256;22.478;2022-10-23T06:18:56;12.50;99.90
26743;DHT22;14341;51.256;22.478;2022-10-23T06:21:59;12.50;99.90
26743;DHT22;14341;51.256;22.478;2022-10-23T06:25:17;12.50;99.90
26743;DHT22;14341;51.256;22.478;2022-10-23T06:28:21;12.60;99.90
26743;DHT22;14341;51.256;22.478;2022-10-23T06:31:25;12.60;99.90
26743;DHT22;14341;51.256;22.478;2022-10-23T06:34:31;12.60;99.90
26743;DHT22;14341;51.256;22.478;2022-10-23T06:37:34;12.70;99.90
26743;DHT22;14341;51.256;22.478;2022-10-23T06:41:00;12.60;99.90
26743;DHT22;14341;51.256;22.478;2022-10-23T06:44:09;12.70;99.90
26743;DHT22;14341;51.256;22.478;2022-10-23T06:47:20;12.80;99.90
26743;DHT22;14341;51.256;22.478;2022-10-23T06:50:42;12.80;99.90
26743;DHT22;14341;51.256;22.478;2022-10-23T06:53:49;12.80;99.90
26743;DHT22;14341;51.256;22.478;2022-10-23T06:57:13;12.90;99.90
26743;DHT22;14341;51.256;22.478;2022-10-23T07:00:20;12.90;99.90
26743;DHT22;14341;51.256;22.478;2022-10-23T07:03:25;12.90;99.90
26743;DHT22;14341;51.256;22.478;2022-10-23T07:06:29;12.90;99.90
26743;DHT22;14341;51.256;22.478;2022-10-23T07:09:34;12.90;99.90
26743;DHT22;14341;51.256;22.478;2022-10-23T07:13:11;13.00;99.90
26743;DHT22;14341;51.256;22.478;2022-10-23T07:16:29;13.00;99.90
26743;DHT22;14341;51.256;22.478;2022-10-23T07:19:33;13.00;99.90
26743;DHT22;14341;51.256;22.478;2022-10-23T07:22:50;13.10;99.90
26743;DHT22;14341;51.256;22.478;2022-10-23T07:26:05;13.20;99.90
26743;DHT22;14341;51.256;22.478;2022-10-23T07:29:11;13.40;99.90
26743;DHT22;14341;51.256;22.478;2022-10-23T07:32:16;13.30;99.90
26743;DHT22;14341;51.256;22.478;2022-10-23T07:35:45;13.40;99.90
26743;DHT22;14341;51.256;22.478;2022-10-23T07:38:57;13.30;99.90
26743;DHT22;14341;51.256;22.478;2022-10-23T07:42:01;13.30;99.90
26743;DHT22;14341;51.256;22.478;2022-10-23T07:45:07;13.30;99.90
26743;DHT22;14341;51.256;22.478;2022-10-23T07:48:14;13.20;99.90
26743;DHT22;14341;51.256;22.478;2022-10-23T07:51:33;13.30;99.90
26743;DHT22;14341;51.256;22.478;2022-10-23T07:54:37;13.20;99.90
26743;DHT22;14341;51.256;22.478;2022-10-23T07:57:53;13.20;99.90
26743;DHT22;14341;51.256;22.478;2022-10-23T08:01:28;13.30;99.90
26743;DHT22;14341;51.256;22.478;2022-10-23T08:04:33;13.30;99.90
26743;DHT22;14341;51.256;22.478;2022-10-23T08:07:47;13.50;99.90
26743;DHT22;14341;51.256;22.478;2022-10-23T08:10:52;13.50;99.90
26743;DHT22;14341;51.256;22.478;2022-10-23T08:14:03;13.50;99.90
26743;DHT22;14341;51.256;22.478;2022-10-23T08:17:08;13.60;99.90
26743;DHT22;14341;51.256;22.478;2022-10-23T08:20:36;13.70;99.90
26743;DHT22;14341;51.256;22.478;2022-10-23T08:23:41;13.70;99.90
26743;DHT22;14341;51.256;22.478;2022-10-23T08:26:48;13.70;99.90
26743;DHT22;14341;51.256;22.478;2022-10-23T08:29:54;13.70;99.90
26743;DHT22;14341;51.256;22.478;2022-10-23T08:33:01;13.60;99.90
26743;DHT22;14341;51.256;22.478;2022-10-23T08:36:12;13.80;99.90
26743;DHT22;14341;51.256;22.478;2022-10-23T08:39:17;13.80;99.90
26743;DHT22;14341;51.256;22.478;2022-10-23T08:42:45;14.00;99.90
26743;DHT22;14341;51.256;22.478;2022-10-23T08:45:52;14.10;99.90
26743;DHT22;14341;51.256;22.478;2022-10-23T08:49:34;14.10;99.90
26743;DHT22;14341;51.256;22.478;2022-10-23T08:52:43;14.40;99.90
26743;DHT22;14341;51.256;22.478;2022-10-23T08:55:55;14.50;99.90
26743;DHT22;14341;51.256;22.478;2022-10-23T08:59:05;14.30;99.90
26743;DHT22;14341;51.256;22.478;2022-10-23T09:02:15;14.40;99.90
26743;DHT22;14341;51.256;22.478;2022-10-23T09:05:26;14.40;99.90
26743;DHT22;14341;51.256;22.478;2022-10-23T09:08:44;14.50;99.90
26743;DHT22;14341;51.256;22.478;2022-10-23T09:11:55;14.50;99.90
26743;DHT22;14341;51.256;22.478;2022-10-23T09:15:21;14.50;99.90
26743;DHT22;14341;51.256;22.478;2022-10-23T09:18:26;14.40;99.90
26743;DHT22;14341;51.256;22.478;2022-10-23T09:21:32;14.40;99.90
26743;DHT22;14341;51.256;22.478;2022-10-23T09:24:35;14.40;99.90
26743;DHT22;14341;51.256;22.478;2022-10-23T09:27:45;14.30;99.90
26743;DHT22;14341;51.256;22.478;2022-10-23T09:30:52;14.30;99.90
26743;DHT22;14341;51.256;22.478;2022-10-23T09:33:57;14.50;99.90
26743;DHT22;14341;51.256;22.478;2022-10-23T09:37:20;14.70;99.90
26743;DHT22;14341;51.256;22.478;2022-10-23T09:40:30;14.80;99.90
26743;DHT22;14341;51.256;22.478;2022-10-23T09:43:38;14.80;99.90
26743;DHT22;14341;51.256;22.478;2022-10-23T09:46:43;15.10;99.90
26743;DHT22;14341;51.256;22.478;2022-10-23T09:49:48;15.20;99.90
26743;DHT22;14341;51.256;22.478;2022-10-23T09:52:54;15.20;99.90
26743;DHT22;14341;51.256;22.478;2022-10-23T09:56:00;15.20;99.90
26743;DHT22;14341;51.256;22.478;2022-10-23T09:59:16;15.30;99.90
26743;DHT22;14341;51.256;22.478;2022-10-23T10:02:26;15.30;99.90
26743;DHT22;14341;51.256;22.478;2022-10-23T10:05:54;15.20;99.90
26743;DHT22;14341;51.256;22.478;2022-10-23T10:09:02;15.40;99.90
26743;DHT22;14341;51.256;22.478;2022-10-23T10:12:29;15.40;99.90
26743;DHT22;14341;51.256;22.478;2022-10-23T10:15:38;15.60;99.90
26743;DHT22;14341;51.256;22.478;2022-10-23T10:18:49;15.60;99.90
26743;DHT22;14341;51.256;22.478;2022-10-23T10:22:02;15.40;99.90
26743;DHT22;14341;51.256;22.478;2022-10-23T10:25:14;15.40;99.90
26743;DHT22;14341;51.256;22.478;2022-10-23T10:28:30;15.60;99.90
26743;DHT22;14341;51.256;22.478;2022-10-23T10:31:52;15.50;99.90
26743;DHT22;14341;51.256;22.478;2022-10-23T10:35:07;15.60;99.90
26743;DHT22;14341;51.256;22.478;2022-10-23T10:45:26;15.20;99.90
26743;DHT22;14341;51.256;22.478;2022-10-23T10:48:46;15.20;99.90
26743;DHT22;14341;51.256;22.478;2022-10-23T10:52:32;15.30;99.90
26743;DHT22;14341;51.256;22.478;2022-10-23T10:55:41;15.40;99.90
26743;DHT22;14341;51.256;22.478;2022-10-23T10:58:49;15.50;99.90
26743;DHT22;14341;51.256;22.478;2022-10-23T11:01:58;15.60;99.90
26743;DHT22;14341;51.256;22.478;2022-10-23T11:05:15;15.60;99.90
26743;DHT22;14341;51.256;22.478;2022-10-23T11:08:31;15.60;99.90
26743;DHT22;14341;51.256;22.478;2022-10-23T11:11:56;15.50;99.90
26743;DHT22;14341;51.256;22.478;2022-10-23T11:15:01;15.60;99.90
26743;DHT22;14341;51.256;22.478;2022-10-23T11:18:13;15.60;99.90
26743;DHT22;14341;51.256;22.478;2022-10-23T11:21:24;15.80;99.90
26743;DHT22;14341;51.256;22.478;2022-10-23T11:24:51;16.00;99.90
26743;DHT22;14341;51.256;22.478;2022-10-23T11:28:13;16.40;99.90
26743;DHT22;14341;51.256;22.478;2022-10-23T11:31:27;16.50;99.90
26743;DHT22;14341;51.256;22.478;2022-10-23T11:34:50;16.70;99.90
26743;DHT22;14341;51.256;22.478;2022-10-23T11:37:59;16.60;99.90
26743;DHT22;14341;51.256;22.478;2022-10-23T11:41:17;16.40;99.90
26743;DHT22;14341;51.256;22.478;2022-10-23T11:44:39;16.40;99.90
26743;DHT22;14341;51.256;22.478;2022-10-23T11:47:55;16.50;99.90
26743;DHT22;14341;51.256;22.478;2022-10-23T11:50:59;16.50;99.90
26743;DHT22;14341;51.256;22.478;2022-10-23T11:54:20;16.60;99.90
26743;DHT22;14341;51.256;22.478;2022-10-23T11:57:29;16.60;99.90
26743;DHT22;14341;51.256;22.478;2022-10-23T12:00:37;16.70;99.90
26743;DHT22;14341;51.256;22.478;2022-10-23T12:03:50;17.00;99.90
26743;DHT22;14341;51.256;22.478;2022-10-23T12:06:56;16.80;99.20
26743;DHT22;14341;51.256;22.478;2022-10-23T12:10:03;16.70;99.90
26743;DHT22;14341;51.256;22.478;2022-10-23T12:13:30;16.50;99.90
26743;DHT22;14341;51.256;22.478;2022-10-23T12:16:34;16.50;99.90
26743;DHT22;14341;51.256;22.478;2022-10-23T12:19:47;16.40;99.90
26743;DHT22;14341;51.256;22.478;2022-10-23T12:23:04;16.40;99.90
26743;DHT22;14341;51.256;22.478;2022-10-23T12:26:20;16.40;99.90
26743;DHT22;14341;51.256;22.478;2022-10-23T12:29:37;16.30;99.90
26743;DHT22;14341;51.256;22.478;2022-10-23T12:36:34;16.30;99.90
26743;DHT22;14341;51.256;22.478;2022-10-23T12:39:42;16.40;99.90
26743;DHT22;14341;51.256;22.478;2022-10-23T12:42:50;16.70;99.90
26743;DHT22;14341;51.256;22.478;2022-10-23T12:46:01;16.80;97.30
26743;DHT22;14341;51.256;22.478;2022-10-23T12:49:14;16.80;93.50
26743;DHT22;14341;51.256;22.478;2022-10-23T12:52:20;16.70;92.30
26743;DHT22;14341;51.256;22.478;2022-10-23T12:55:26;16.50;95.10
26743;DHT22;14341;51.256;22.478;2022-10-23T12:58:35;16.60;99.20
26743;DHT22;14341;51.256;22.478;2022-10-23T13:01:39;16.50;99.90
26743;DHT22;14341;51.256;22.478;2022-10-23T13:04:44;16.50;99.90
26743;DHT22;14341;51.256;22.478;2022-10-23T13:07:51;16.40;99.90
26743;DHT22;14341;51.256;22.478;2022-10-23T13:11:04;16.30;99.90
26743;DHT22;14341;51.256;22.478;2022-10-23T13:14:12;16.30;99.90
26743;DHT22;14341;51.256;22.478;2022-10-23T13:17:16;16.20;99.90
26743;DHT22;14341;51.256;22.478;2022-10-23T13:20:22;16.30;99.90
26743;DHT22;14341;51.256;22.478;2022-10-23T13:23:30;16.40;99.90
26743;DHT22;14341;51.256;22.478;2022-10-23T13:26:37;16.50;99.90
26743;DHT22;14341;51.256;22.478;2022-10-23T13:29:46;16.60;99.90
26743;DHT22;14341;51.256;22.478;2022-10-23T13:32:49;16.50;99.90
26743;DHT22;14341;51.256;22.478;2022-10-23T13:35:56;16.50;99.90
26743;DHT22;14341;51.256;22.478;2022-10-23T13:39:03;16.50;99.90
26743;DHT22;14341;51.256;22.478;2022-10-23T13:42:12;16.70;99.90
26743;DHT22;14341;51.256;22.478;2022-10-23T13:45:19;17.00;95.90
26743;DHT22;14341;51.256;22.478;2022-10-23T13:48:23;17.20;91.20
26743;DHT22;14341;51.256;22.478;2022-10-23T13:51:28;17.30;87.40
26743;DHT22;14341;51.256;22.478;2022-10-23T13:54:34;17.20;92.80
26743;DHT22;14341;51.256;22.478;2022-10-23T13:57:37;17.00;93.00
26743;DHT22;14341;51.256;22.478;2022-10-23T14:00:40;16.90;95.90
26743;DHT22;14341;51.256;22.478;2022-10-23T14:03:45;16.80;99.90
26743;DHT22;14341;51.256;22.478;2022-10-23T14:06:49;16.90;99.90
26743;DHT22;14341;51.256;22.478;2022-10-23T14:09:57;16.90;98.60
26743;DHT22;14341;51.256;22.478;2022-10-23T14:13:00;16.80;99.60
26743;DHT22;14341;51.256;22.478;2022-10-23T14:16:04;16.90;99.90
26743;DHT22;14341;51.256;22.478;2022-10-23T14:19:08;16.80;99.90
26743;DHT22;14341;51.256;22.478;2022-10-23T14:22:12;16.70;99.90
26743;DHT22;14341;51.256;22.478;2022-10-23T14:25:17;16.40;99.90
26743;DHT22;14341;51.256;22.478;2022-10-23T14:28:20;16.40;99.90
26743;DHT22;14341;51.256;22.478;2022-10-23T14:31:24;16.20;99.90
26743;DHT22;14341;51.256;22.478;2022-10-23T14:34:28;16.10;99.90
26743;DHT22;14341;51.256;22.478;2022-10-23T14:37:31;16.00;99.90
26743;DHT22;14341;51.256;22.478;2022-10-23T14:40:37;15.90;99.90
26743;DHT22;14341;51.256;22.478;2022-10-23T14:43:41;15.70;99.90
26743;DHT22;14341;51.256;22.478;2022-10-23T14:46:45;15.60;99.90
26743;DHT22;14341;51.256;22.478;2022-10-23T14:49:51;15.50;99.90
26743;DHT22;14341;51.256;22.478;2022-10-23T14:52:54;15.30;99.90
26743;DHT22;14341;51.256;22.478;2022-10-23T14:56:01;15.20;99.90
26743;DHT22;14341;51.256;22.478;2022-10-23T14:59:05;15.10;99.90
26743;DHT22;14341;51.256;22.478;2022-10-23T15:02:09;15.10;99.90
26743;DHT22;14341;51.256;22.478;2022-10-23T15:05:13;14.90;99.90
26743;DHT22;14341;51.256;22.478;2022-10-23T15:08:17;14.80;99.90
26743;DHT22;14341;51.256;22.478;2022-10-23T15:11:23;14.70;99.90
26743;DHT22;14341;51.256;22.478;2022-10-23T15:14:26;14.60;99.90
26743;DHT22;14341;51.256;22.478;2022-10-23T15:17:30;14.50;99.90
26743;DHT22;14341;51.256;22.478;2022-10-23T15:20:34;14.30;99.90
26743;DHT22;14341;51.256;22.478;2022-10-23T15:23:40;14.20;99.90
26743;DHT22;14341;51.256;22.478;2022-10-23T15:26:45;14.00;99.90
26743;DHT22;14341;51.256;22.478;2022-10-23T15:29:48;13.90;99.90
26743;DHT22;14341;51.256;22.478;2022-10-23T15:32:52;13.60;99.90
26743;DHT22;14341;51.256;22.478;2022-10-23T15:35:55;13.40;99.90
26743;DHT22;14341;51.256;22.478;2022-10-23T15:38:58;13.20;99.90
26743;DHT22;14341;51.256;22.478;2022-10-23T15:42:04;13.00;99.90
26743;DHT22;14341;51.256;22.478;2022-10-23T15:45:09;12.80;99.90
26743;DHT22;14341;51.256;22.478;2022-10-23T15:48:13;12.60;99.90
26743;DHT22;14341;51.256;22.478;2022-10-23T15:51:17;12.50;99.90
26743;DHT22;14341;51.256;22.478;2022-10-23T15:54:20;12.30;99.90
26743;DHT22;14341;51.256;22.478;2022-10-23T15:57:25;12.20;99.90
26743;DHT22;14341;51.256;22.478;2022-10-23T16:00:29;12.10;99.90
26743;DHT22;14341;51.256;22.478;2022-10-23T16:03:37;12.00;99.90
26743;DHT22;14341;51.256;22.478;2022-10-23T16:06:40;11.80;99.90
26743;DHT22;14341;51.256;22.478;2022-10-23T16:09:44;11.70;99.90
26743;DHT22;14341;51.256;22.478;2022-10-23T16:12:49;11.60;99.90
26743;DHT22;14341;51.256;22.478;2022-10-23T16:15:52;11.50;99.90
26743;DHT22;14341;51.256;22.478;2022-10-23T16:18:57;11.40;99.90
26743;DHT22;14341;51.256;22.478;2022-10-23T16:22:02;11.30;99.90
26743;DHT22;14341;51.256;22.478;2022-10-23T16:25:06;11.20;99.90
26743;DHT22;14341;51.256;22.478;2022-10-23T16:28:11;11.20;99.90
26743;DHT22;14341;51.256;22.478;2022-10-23T16:31:17;11.10;99.90
26743;DHT22;14341;51.256;22.478;2022-10-23T16:34:22;11.00;99.90
26743;DHT22;14341;51.256;22.478;2022-10-23T16:37:26;11.10;99.90
26743;DHT22;14341;51.256;22.478;2022-10-23T16:40:35;11.00;99.90
26743;DHT22;14341;51.256;22.478;2022-10-23T16:44:09;10.90;99.90
26743;DHT22;14341;51.256;22.478;2022-10-23T16:47:29;10.90;99.90
26743;DHT22;14341;51.256;22.478;2022-10-23T16:50:33;10.80;99.90
26743;DHT22;14341;51.256;22.478;2022-10-23T16:53:37;10.80;99.90
26743;DHT22;14341;51.256;22.478;2022-10-23T16:56:40;10.90;99.90
26743;DHT22;14341;51.256;22.478;2022-10-23T16:59:48;10.80;99.90
26743;DHT22;14341;51.256;22.478;2022-10-23T17:02:52;10.80;99.90
26743;DHT22;14341;51.256;22.478;2022-10-23T17:05:59;10.80;99.90
26743;DHT22;14341;51.256;22.478;2022-10-23T17:09:03;10.70;99.90
26743;DHT22;14341;51.256;22.478;2022-10-23T17:12:08;10.60;99.90
26743;DHT22;14341;51.256;22.478;2022-10-23T17:15:14;10.60;99.90
26743;DHT22;14341;51.256;22.478;2022-10-23T17:18:18;10.70;99.90
26743;DHT22;14341;51.256;22.478;2022-10-23T17:21:22;10.60;99.90
26743;DHT22;14341;51.256;22.478;2022-10-23T17:24:26;10.70;99.90
26743;DHT22;14341;51.256;22.478;2022-10-23T17:27:31;10.70;99.90
26743;DHT22;14341;51.256;22.478;2022-10-23T17:30:47;10.80;99.90
26743;DHT22;14341;51.256;22.478;2022-10-23T17:33:54;10.80;99.90
26743;DHT22;14341;51.256;22.478;2022-10-23T17:36:58;10.70;99.90
26743;DHT22;14341;51.256;22.478;2022-10-23T17:40:03;10.70;99.90
26743;DHT22;14341;51.256;22.478;2022-10-23T17:43:08;10.60;99.90
26743;DHT22;14341;51.256;22.478;2022-10-23T17:46:14;10.60;99.90
26743;DHT22;14341;51.256;22.478;2022-10-23T17:49:19;10.60;99.90
26743;DHT22;14341;51.256;22.478;2022-10-23T17:52:22;10.60;99.90
26743;DHT22;14341;51.256;22.478;2022-10-23T17:55:26;10.60;99.90
26743;DHT22;14341;51.256;22.478;2022-10-23T17:58:30;10.60;99.90
26743;DHT22;14341;51.256;22.478;2022-10-23T18:01:34;10.60;99.90
26743;DHT22;14341;51.256;22.478;2022-10-23T18:04:38;10.60;99.90
26743;DHT22;14341;51.256;22.478;2022-10-23T18:07:42;10.80;99.90
26743;DHT22;14341;51.256;22.478;2022-10-23T18:10:47;10.90;99.90
26743;DHT22;14341;51.256;22.478;2022-10-23T18:13:51;11.00;99.90
26743;DHT22;14341;51.256;22.478;2022-10-23T18:16:56;11.00;99.90
26743;DHT22;14341;51.256;22.478;2022-10-23T18:20:00;11.10;99.90
26743;DHT22;14341;51.256;22.478;2022-10-23T18:23:03;11.00;99.90
26743;DHT22;14341;51.256;22.478;2022-10-23T18:26:12;10.90;99.90
26743;DHT22;14341;51.256;22.478;2022-10-23T18:29:17;10.80;99.90
26743;DHT22;14341;51.256;22.478;2022-10-23T18:32:23;10.90;99.90
26743;DHT22;14341;51.256;22.478;2022-10-23T18:35:27;11.00;99.90
26743;DHT22;14341;51.256;22.478;2022-10-23T18:38:30;11.00;99.90
26743;DHT22;14341;51.256;22.478;2022-10-23T18:41:36;10.90;99.90
26743;DHT22;14341;51.256;22.478;2022-10-23T18:44:40;10.80;99.90
26743;DHT22;14341;51.256;22.478;2022-10-23T18:47:49;10.80;99.90
26743;DHT22;14341;51.256;22.478;2022-10-23T18:50:53;10.80;99.90
26743;DHT22;14341;51.256;22.478;2022-10-23T18:53:59;10.80;99.90
26743;DHT22;14341;51.256;22.478;2022-10-23T18:57:03;10.90;99.90
26743;DHT22;14341;51.256;22.478;2022-10-23T19:00:08;10.80;99.90
26743;DHT22;14341;51.256;22.478;2022-10-23T19:03:14;10.60;99.90
26743;DHT22;14341;51.256;22.478;2022-10-23T19:06:19;10.50;99.90
26743;DHT22;14341;51.256;22.478;2022-10-23T19:09:22;10.40;99.90
26743;DHT22;14341;51.256;22.478;2022-10-23T19:12:26;10.20;99.90
26743;DHT22;14341;51.256;22.478;2022-10-23T19:15:31;10.20;99.90
26743;DHT22;14341;51.256;22.478;2022-10-23T19:18:39;10.10;99.90
26743;DHT22;14341;51.256;22.478;2022-10-23T19:21:44;10.00;99.90
26743;DHT22;14341;51.256;22.478;2022-10-23T19:24:51;9.90;99.90
26743;DHT22;14341;51.256;22.478;2022-10-23T19:27:57;10.00;99.90
26743;DHT22;14341;51.256;22.478;2022-10-23T19:31:02;9.90;99.90
26743;DHT22;14341;51.256;22.478;2022-10-23T19:34:08;10.00;99.90
26743;DHT22;14341;51.256;22.478;2022-10-23T19:37:13;10.10;99.90
26743;DHT22;14341;51.256;22.478;2022-10-23T19:40:18;10.20;99.90